sensor_id;sensor_type;location;lat;lon;timestamp;pressure;altitude;pressure_sealevel;temperature;humidity
62057;BME280;48016;50.284;18.860;2023-12-20T00:01:22;97632.11;;;5.87;64.61
62057;BME280;48016;50.284;18.860;2023-12-20T00:03:49;97634.30;;;5.86;64.61
62057;BME280;48016;50.284;18.860;2023-12-20T00:06:15;97619.70;;;5.86;65.15
62057;BME280;48016;50.284;18.860;2023-12-20T00:08:42;97608.94;;;5.87;65.61
62057;BME280;48016;50.284;18.860;2023-12-20T00:11:08;97621.06;;;5.87;66.10
62057;BME280;48016;50.284;18.860;2023-12-20T00:13:35;97605.62;;;5.87;66.56
62057;BME280;48016;50.284;18.860;2023-12-20T00:16:01;97601.84;;;5.86;66.32
62057;BME280;48016;50.284;18.860;2023-12-20T00:18:28;97580.83;;;5.87;66.18
62057;BME280;48016;50.284;18.860;2023-12-20T00:20:55;97581.70;;;5.85;66.24
62057;BME280;48016;50.284;18.860;2023-12-20T00:23:21;97569.61;;;5.81;66.10
62057;BME280;48016;50.284;18.860;2023-12-20T00:25:49;97572.20;;;5.76;66.07
62057;BME280;48016;50.284;18.860;2023-12-20T00:28:16;97587.86;;;5.72;66.11
62057;BME280;48016;50.284;18.860;2023-12-20T00:30:42;97585.06;;;5.68;65.82
62057;BME280;48016;50.284;18.860;2023-12-20T00:33:09;97592.91;;;5.64;65.95
62057;BME280;48016;50.284;18.860;2023-12-20T00:35:35;97581.39;;;5.59;65.78
62057;BME280;48016;50.284;18.860;2023-12-20T00:38:02;97581.45;;;5.54;65.83
62057;BME280;48016;50.284;18.860;2023-12-20T00:40:29;97587.59;;;5.49;65.79
62057;BME280;48016;50.284;18.860;2023-12-20T00:42:55;97583.81;;;5.45;65.63
62057;BME280;48016;50.284;18.860;2023-12-20T00:45:22;97583.33;;;5.41;65.92
62057;BME280;48016;50.284;18.860;2023-12-20T00:47:48;97595.68;;;5.40;65.88
62057;BME280;48016;50.284;18.860;2023-12-20T00:50:15;97578.26;;;5.39;66.00
62057;BME280;48016;50.284;18.860;2023-12-20T00:52:42;97572.50;;;5.39;65.98
62057;BME280;48016;50.284;18.860;2023-12-20T00:55:08;97551.08;;;5.40;65.95
62057;BME280;48016;50.284;18.860;2023-12-20T00:57:35;97547.89;;;5.41;66.02
62057;BME280;48016;50.284;18.860;2023-12-20T01:00:02;97543.09;;;5.43;66.01
62057;BME280;48016;50.284;18.860;2023-12-20T01:02:28;97544.77;;;5.44;65.79
62057;BME280;48016;50.284;18.860;2023-12-20T01:04:55;97522.89;;;5.44;65.72
62057;BME280;48016;50.284;18.860;2023-12-20T01:07:22;97512.83;;;5.46;65.35
62057;BME280;48016;50.284;18.860;2023-12-20T01:09:48;97525.27;;;5.46;65.04
62057;BME280;48016;50.284;18.860;2023-12-20T01:12:15;97538.90;;;5.46;64.79
62057;BME280;48016;50.284;18.860;2023-12-20T01:14:41;97533.42;;;5.45;64.59
62057;BME280;48016;50.284;18.860;2023-12-20T01:17:08;97529.14;;;5.45;64.29
62057;BME280;48016;50.284;18.860;2023-12-20T01:19:35;97503.40;;;5.45;64.06
62057;BME280;48016;50.284;18.860;2023-12-20T01:22:02;97499.02;;;5.47;63.88
62057;BME280;48016;50.284;18.860;2023-12-20T01:24:29;97508.76;;;5.49;63.59
62057;BME280;48016;50.284;18.860;2023-12-20T01:26:56;97502.89;;;5.50;63.42
62057;BME280;48016;50.284;18.860;2023-12-20T01:29:22;97487.59;;;5.52;63.46
62057;BME280;48016;50.284;18.860;2023-12-20T01:31:49;97490.88;;;5.52;63.17
62057;BME280;48016;50.284;18.860;2023-12-20T01:34:16;97494.85;;;5.53;63.09
62057;BME280;48016;50.284;18.860;2023-12-20T01:36:43;97506.92;;;5.54;62.91
62057;BME280;48016;50.284;18.860;2023-12-20T01:39:09;97501.04;;;5.55;62.76
62057;BME280;48016;50.284;18.860;2023-12-20T01:41:36;97502.47;;;5.57;62.97
62057;BME280;48016;50.284;18.860;2023-12-20T01:44:03;97510.20;;;5.58;62.87
62057;BME280;48016;50.284;18.860;2023-12-20T01:46:30;97528.13;;;5.59;62.69
62057;BME280;48016;50.284;18.860;2023-12-20T01:48:57;97524.03;;;5.57;62.27
62057;BME280;48016;50.284;18.860;2023-12-20T01:51:24;97504.59;;;5.58;62.70
62057;BME280;48016;50.284;18.860;2023-12-20T01:53:55;97509.86;;;5.59;62.66
62057;BME280;48016;50.284;18.860;2023-12-20T01:56:22;97505.74;;;5.60;62.66
62057;BME280;48016;50.284;18.860;2023-12-20T01:58:48;97500.63;;;5.62;62.60
62057;BME280;48016;50.284;18.860;2023-12-20T02:01:15;97501.17;;;5.63;62.52
62057;BME280;48016;50.284;18.860;2023-12-20T02:03:42;97491.64;;;5.63;62.49
62057;BME280;48016;50.284;18.860;2023-12-20T02:06:09;97495.30;;;5.64;62.49
62057;BME280;48016;50.284;18.860;2023-12-20T02:08:36;97486.42;;;5.63;62.14
62057;BME280;48016;50.284;18.860;2023-12-20T02:11:03;97470.86;;;5.65;62.42
62057;BME280;48016;50.284;18.860;2023-12-20T02:13:30;97478.03;;;5.67;62.55
62057;BME280;48016;50.284;18.860;2023-12-20T02:15:57;97497.29;;;5.67;62.60
62057;BME280;48016;50.284;18.860;2023-12-20T02:18:23;97478.03;;;5.68;62.43
62057;BME280;48016;50.284;18.860;2023-12-20T02:20:50;97484.73;;;5.67;62.27
62057;BME280;48016;50.284;18.860;2023-12-20T02:23:17;97505.49;;;5.67;62.07
62057;BME280;48016;50.284;18.860;2023-12-20T02:25:43;97484.79;;;5.67;61.66
62057;BME280;48016;50.284;18.860;2023-12-20T02:28:10;97490.69;;;5.67;62.01
62057;BME280;48016;50.284;18.860;2023-12-20T02:30:36;97481.35;;;5.67;62.24
62057;BME280;48016;50.284;18.860;2023-12-20T02:33:07;97483.70;;;5.66;61.98
62057;BME280;48016;50.284;18.860;2023-12-20T02:35:35;97491.77;;;5.65;61.76
62057;BME280;48016;50.284;18.860;2023-12-20T02:38:01;97483.08;;;5.64;61.87
62057;BME280;48016;50.284;18.860;2023-12-20T02:40:28;97467.33;;;5.62;62.04
62057;BME280;48016;50.284;18.860;2023-12-20T02:42:55;97470.93;;;5.60;62.04
62057;BME280;48016;50.284;18.860;2023-12-20T02:45:21;97468.90;;;5.57;62.08
62057;BME280;48016;50.284;18.860;2023-12-20T02:47:48;97469.13;;;5.54;62.23
62057;BME280;48016;50.284;18.860;2023-12-20T02:50:14;97466.54;;;5.54;62.23
62057;BME280;48016;50.284;18.860;2023-12-20T02:52:44;97465.65;;;5.51;62.33
62057;BME280;48016;50.284;18.860;2023-12-20T02:55:11;97468.38;;;5.51;62.60
62057;BME280;48016;50.284;18.860;2023-12-20T02:57:37;97473.21;;;5.49;62.89
62057;BME280;48016;50.284;18.860;2023-12-20T03:00:09;97465.55;;;5.46;63.42
62057;BME280;48016;50.284;18.860;2023-12-20T03:02:36;97465.53;;;5.44;63.88
62057;BME280;48016;50.284;18.860;2023-12-20T03:05:03;97470.95;;;5.41;64.45
62057;BME280;48016;50.284;18.860;2023-12-20T03:07:30;97472.29;;;5.38;64.58
62057;BME280;48016;50.284;18.860;2023-12-20T03:09:56;97469.93;;;5.35;64.97
62057;BME280;48016;50.284;18.860;2023-12-20T03:12:23;97468.69;;;5.32;65.56
62057;BME280;48016;50.284;18.860;2023-12-20T03:14:49;97470.30;;;5.29;65.95
62057;BME280;48016;50.284;18.860;2023-12-20T03:17:16;97466.85;;;5.28;66.49
62057;BME280;48016;50.284;18.860;2023-12-20T03:19:43;97466.48;;;5.26;67.54
62057;BME280;48016;50.284;18.860;2023-12-20T03:22:09;97459.89;;;5.22;68.13
62057;BME280;48016;50.284;18.860;2023-12-20T03:24:36;97457.58;;;5.19;68.54
62057;BME280;48016;50.284;18.860;2023-12-20T03:27:02;97459.94;;;5.16;68.80
62057;BME280;48016;50.284;18.860;2023-12-20T03:29:29;97457.59;;;5.14;69.12
62057;BME280;48016;50.284;18.860;2023-12-20T03:31:56;97456.83;;;5.13;69.23
62057;BME280;48016;50.284;18.860;2023-12-20T03:34:22;97459.48;;;5.11;69.54
62057;BME280;48016;50.284;18.860;2023-12-20T03:36:49;97462.88;;;5.10;69.73
62057;BME280;48016;50.284;18.860;2023-12-20T03:39:15;97461.07;;;5.08;69.86
62057;BME280;48016;50.284;18.860;2023-12-20T03:41:42;97460.23;;;5.06;70.20
62057;BME280;48016;50.284;18.860;2023-12-20T03:44:08;97459.61;;;5.04;70.67
62057;BME280;48016;50.284;18.860;2023-12-20T03:46:35;97458.91;;;5.01;71.02
62057;BME280;48016;50.284;18.860;2023-12-20T03:49:01;97462.60;;;5.00;71.03
62057;BME280;48016;50.284;18.860;2023-12-20T03:51:28;97466.36;;;5.00;70.98
62057;BME280;48016;50.284;18.860;2023-12-20T03:53:54;97466.26;;;4.98;71.62
62057;BME280;48016;50.284;18.860;2023-12-20T03:56:21;97467.21;;;4.98;71.43
62057;BME280;48016;50.284;18.860;2023-12-20T03:58:47;97463.10;;;4.98;71.29
62057;BME280;48016;50.284;18.860;2023-12-20T04:01:14;97464.75;;;4.98;71.40
62057;BME280;48016;50.284;18.860;2023-12-20T04:03:40;97462.35;;;4.96;71.09
62057;BME280;48016;50.284;18.860;2023-12-20T04:06:07;97466.74;;;4.93;71.27
62057;BME280;48016;50.284;18.860;2023-12-20T04:08:33;97469.46;;;4.89;71.16
62057;BME280;48016;50.284;18.860;2023-12-20T04:11:00;97475.66;;;4.85;71.45
62057;BME280;48016;50.284;18.860;2023-12-20T04:13:26;97474.34;;;4.81;71.36
62057;BME280;48016;50.284;18.860;2023-12-20T04:15:53;97477.87;;;4.75;71.48
62057;BME280;48016;50.284;18.860;2023-12-20T04:18:20;97474.55;;;4.69;71.72
62057;BME280;48016;50.284;18.860;2023-12-20T04:20:46;97476.80;;;4.65;71.62
62057;BME280;48016;50.284;18.860;2023-12-20T04:23:13;97474.73;;;4.60;71.79
62057;BME280;48016;50.284;18.860;2023-12-20T04:25:40;97472.04;;;4.54;71.92
62057;BME280;48016;50.284;18.860;2023-12-20T04:28:06;97471.79;;;4.47;72.14
62057;BME280;48016;50.284;18.860;2023-12-20T04:30:33;97477.38;;;4.44;72.50
62057;BME280;48016;50.284;18.860;2023-12-20T04:33:00;97473.71;;;4.40;72.80
62057;BME280;48016;50.284;18.860;2023-12-20T04:35:26;97473.20;;;4.39;72.96
62057;BME280;48016;50.284;18.860;2023-12-20T04:37:53;97464.73;;;4.38;73.10
62057;BME280;48016;50.284;18.860;2023-12-20T04:40:19;97461.97;;;4.36;73.26
62057;BME280;48016;50.284;18.860;2023-12-20T04:42:46;97460.00;;;4.34;73.33
62057;BME280;48016;50.284;18.860;2023-12-20T04:45:13;97466.14;;;4.33;73.50
62057;BME280;48016;50.284;18.860;2023-12-20T04:47:42;97457.46;;;4.31;73.29
62057;BME280;48016;50.284;18.860;2023-12-20T04:50:08;97457.27;;;4.26;73.40
62057;BME280;48016;50.284;18.860;2023-12-20T04:52:36;97456.45;;;4.21;73.61
62057;BME280;48016;50.284;18.860;2023-12-20T04:55:02;97450.37;;;4.17;73.65
62057;BME280;48016;50.284;18.860;2023-12-20T04:57:29;97448.73;;;4.13;73.98
62057;BME280;48016;50.284;18.860;2023-12-20T04:59:55;97450.26;;;4.09;74.12
62057;BME280;48016;50.284;18.860;2023-12-20T05:02:22;97444.45;;;4.07;74.73
62057;BME280;48016;50.284;18.860;2023-12-20T05:04:49;97445.16;;;4.08;74.78
62057;BME280;48016;50.284;18.860;2023-12-20T05:07:15;97445.39;;;4.09;74.74
62057;BME280;48016;50.284;18.860;2023-12-20T05:09:42;97441.46;;;4.08;74.68
62057;BME280;48016;50.284;18.860;2023-12-20T05:12:09;97439.14;;;4.07;74.78
62057;BME280;48016;50.284;18.860;2023-12-20T05:14:35;97442.23;;;4.06;74.93
62057;BME280;48016;50.284;18.860;2023-12-20T05:17:02;97446.64;;;4.04;74.90
62057;BME280;48016;50.284;18.860;2023-12-20T05:19:29;97445.92;;;4.02;75.09
62057;BME280;48016;50.284;18.860;2023-12-20T05:21:56;97442.81;;;4.01;75.00
62057;BME280;48016;50.284;18.860;2023-12-20T05:24:22;97446.52;;;3.99;75.26
62057;BME280;48016;50.284;18.860;2023-12-20T05:26:49;97447.33;;;3.97;75.32
62057;BME280;48016;50.284;18.860;2023-12-20T05:29:15;97446.23;;;3.94;75.55
62057;BME280;48016;50.284;18.860;2023-12-20T05:31:43;97446.19;;;3.90;75.89
62057;BME280;48016;50.284;18.860;2023-12-20T05:34:09;97446.67;;;3.88;75.66
62057;BME280;48016;50.284;18.860;2023-12-20T05:36:37;97442.19;;;3.86;75.86
62057;BME280;48016;50.284;18.860;2023-12-20T05:39:03;97438.49;;;3.83;76.00
62057;BME280;48016;50.284;18.860;2023-12-20T05:41:30;97441.94;;;3.81;76.29
62057;BME280;48016;50.284;18.860;2023-12-20T05:43:57;97444.04;;;3.82;76.50
62057;BME280;48016;50.284;18.860;2023-12-20T05:46:24;97437.98;;;3.82;76.68
62057;BME280;48016;50.284;18.860;2023-12-20T05:48:51;97435.59;;;3.82;76.65
62057;BME280;48016;50.284;18.860;2023-12-20T05:51:18;97435.61;;;3.81;76.62
62057;BME280;48016;50.284;18.860;2023-12-20T05:53:45;97438.55;;;3.81;76.66
62057;BME280;48016;50.284;18.860;2023-12-20T05:56:11;97434.98;;;3.81;76.90
62057;BME280;48016;50.284;18.860;2023-12-20T05:58:39;97433.58;;;3.80;76.74
62057;BME280;48016;50.284;18.860;2023-12-20T06:01:06;97433.59;;;3.77;76.96
62057;BME280;48016;50.284;18.860;2023-12-20T06:03:34;97436.36;;;3.74;77.02
62057;BME280;48016;50.284;18.860;2023-12-20T06:06:08;97441.31;;;3.71;77.40
62057;BME280;48016;50.284;18.860;2023-12-20T06:08:35;97442.97;;;3.69;77.62
62057;BME280;48016;50.284;18.860;2023-12-20T06:11:02;97445.22;;;3.68;77.49
62057;BME280;48016;50.284;18.860;2023-12-20T06:13:28;97446.67;;;3.67;77.52
62057;BME280;48016;50.284;18.860;2023-12-20T06:15:55;97442.77;;;3.63;77.69
62057;BME280;48016;50.284;18.860;2023-12-20T06:18:22;97442.25;;;3.61;77.90
62057;BME280;48016;50.284;18.860;2023-12-20T06:20:49;97444.97;;;3.60;78.13
62057;BME280;48016;50.284;18.860;2023-12-20T06:23:15;97445.18;;;3.60;78.01
62057;BME280;48016;50.284;18.860;2023-12-20T06:25:42;97447.41;;;3.59;78.16
62057;BME280;48016;50.284;18.860;2023-12-20T06:28:08;97450.06;;;3.60;78.38
62057;BME280;48016;50.284;18.860;2023-12-20T06:30:36;97447.34;;;3.61;78.58
62057;BME280;48016;50.284;18.860;2023-12-20T06:33:03;97452.58;;;3.63;78.61
62057;BME280;48016;50.284;18.860;2023-12-20T06:35:29;97452.25;;;3.62;78.51
62057;BME280;48016;50.284;18.860;2023-12-20T06:37:56;97460.16;;;3.61;79.00
62057;BME280;48016;50.284;18.860;2023-12-20T06:40:22;97459.14;;;3.60;78.77
62057;BME280;48016;50.284;18.860;2023-12-20T06:42:49;97463.26;;;3.60;78.76
62057;BME280;48016;50.284;18.860;2023-12-20T06:45:15;97463.16;;;3.61;78.87
62057;BME280;48016;50.284;18.860;2023-12-20T06:47:42;97469.05;;;3.61;78.84
62057;BME280;48016;50.284;18.860;2023-12-20T06:50:09;97470.42;;;3.62;79.04
62057;BME280;48016;50.284;18.860;2023-12-20T06:52:35;97467.69;;;3.65;79.13
62057;BME280;48016;50.284;18.860;2023-12-20T06:55:02;97467.83;;;3.66;79.38
62057;BME280;48016;50.284;18.860;2023-12-20T06:57:29;97468.45;;;3.68;79.43
62057;BME280;48016;50.284;18.860;2023-12-20T06:59:56;97473.60;;;3.68;79.67
62057;BME280;48016;50.284;18.860;2023-12-20T07:02:24;97472.21;;;3.66;79.83
62057;BME280;48016;50.284;18.860;2023-12-20T07:04:50;97473.05;;;3.66;79.60
62057;BME280;48016;50.284;18.860;2023-12-20T07:07:17;97473.05;;;3.68;79.78
62057;BME280;48016;50.284;18.860;2023-12-20T07:09:44;97471.13;;;3.70;80.19
62057;BME280;48016;50.284;18.860;2023-12-20T07:12:10;97470.45;;;3.72;79.98
62057;BME280;48016;50.284;18.860;2023-12-20T07:14:37;97469.59;;;3.75;80.08
62057;BME280;48016;50.284;18.860;2023-12-20T07:17:03;97475.43;;;3.78;79.95
62057;BME280;48016;50.284;18.860;2023-12-20T07:19:30;97477.14;;;3.80;80.38
62057;BME280;48016;50.284;18.860;2023-12-20T07:21:56;97477.77;;;3.81;80.17
62057;BME280;48016;50.284;18.860;2023-12-20T07:24:23;97477.02;;;3.82;80.15
62057;BME280;48016;50.284;18.860;2023-12-20T07:26:49;97477.95;;;3.83;80.27
62057;BME280;48016;50.284;18.860;2023-12-20T07:29:17;97479.83;;;3.85;80.56
62057;BME280;48016;50.284;18.860;2023-12-20T07:31:43;97473.59;;;3.88;80.74
62057;BME280;48016;50.284;18.860;2023-12-20T07:34:10;97476.45;;;3.89;80.84
62057;BME280;48016;50.284;18.860;2023-12-20T07:36:36;97479.73;;;3.90;80.57
62057;BME280;48016;50.284;18.860;2023-12-20T07:39:03;97482.39;;;3.90;80.77
62057;BME280;48016;50.284;18.860;2023-12-20T07:41:29;97484.59;;;3.92;80.97
62057;BME280;48016;50.284;18.860;2023-12-20T07:43:56;97488.41;;;3.94;80.91
62057;BME280;48016;50.284;18.860;2023-12-20T07:46:23;97492.30;;;3.93;81.01
62057;BME280;48016;50.284;18.860;2023-12-20T07:48:49;97490.80;;;3.92;81.12
62057;BME280;48016;50.284;18.860;2023-12-20T07:51:16;97493.53;;;3.90;81.25
62057;BME280;48016;50.284;18.860;2023-12-20T07:53:43;97493.61;;;3.91;81.13
62057;BME280;48016;50.284;18.860;2023-12-20T07:56:17;97490.27;;;3.91;81.25
62057;BME280;48016;50.284;18.860;2023-12-20T07:58:45;97484.95;;;3.90;81.65
62057;BME280;48016;50.284;18.860;2023-12-20T08:01:12;97481.81;;;3.88;81.50
62057;BME280;48016;50.284;18.860;2023-12-20T08:03:38;97483.91;;;3.86;81.86
62057;BME280;48016;50.284;18.860;2023-12-20T08:06:05;97485.33;;;3.85;81.91
62057;BME280;48016;50.284;18.860;2023-12-20T08:08:31;97483.04;;;3.83;81.87
62057;BME280;48016;50.284;18.860;2023-12-20T08:10:58;97484.02;;;3.84;81.89
62057;BME280;48016;50.284;18.860;2023-12-20T08:13:26;97488.87;;;3.85;82.09
62057;BME280;48016;50.284;18.860;2023-12-20T08:15:53;97489.56;;;3.82;81.87
62057;BME280;48016;50.284;18.860;2023-12-20T08:18:20;97487.64;;;3.83;82.02
62057;BME280;48016;50.284;18.860;2023-12-20T08:20:46;97485.73;;;3.84;82.23
62057;BME280;48016;50.284;18.860;2023-12-20T08:23:14;97480.11;;;3.84;82.08
62057;BME280;48016;50.284;18.860;2023-12-20T08:25:41;97480.56;;;3.82;82.33
62057;BME280;48016;50.284;18.860;2023-12-20T08:28:08;97479.90;;;3.84;82.33
62057;BME280;48016;50.284;18.860;2023-12-20T08:30:34;97477.09;;;3.85;82.21
62057;BME280;48016;50.284;18.860;2023-12-20T08:33:01;97472.67;;;3.83;82.13
62057;BME280;48016;50.284;18.860;2023-12-20T08:35:28;97474.00;;;3.83;82.31
62057;BME280;48016;50.284;18.860;2023-12-20T08:37:55;97475.23;;;3.83;82.30
62057;BME280;48016;50.284;18.860;2023-12-20T08:40:21;97481.88;;;3.81;82.28
62057;BME280;48016;50.284;18.860;2023-12-20T08:42:48;97484.64;;;3.81;82.40
62057;BME280;48016;50.284;18.860;2023-12-20T08:45:14;97485.22;;;3.80;82.58
62057;BME280;48016;50.284;18.860;2023-12-20T08:47:41;97485.62;;;3.79;82.56
62057;BME280;48016;50.284;18.860;2023-12-20T08:50:08;97489.40;;;3.79;82.54
62057;BME280;48016;50.284;18.860;2023-12-20T08:52:35;97488.91;;;3.78;82.51
62057;BME280;48016;50.284;18.860;2023-12-20T08:55:02;97490.30;;;3.80;82.68
62057;BME280;48016;50.284;18.860;2023-12-20T08:57:28;97490.09;;;3.80;82.68
62057;BME280;48016;50.284;18.860;2023-12-20T08:59:55;97493.27;;;3.79;82.84
62057;BME280;48016;50.284;18.860;2023-12-20T09:02:21;97497.23;;;3.80;82.72
62057;BME280;48016;50.284;18.860;2023-12-20T09:04:48;97497.57;;;3.80;82.85
62057;BME280;48016;50.284;18.860;2023-12-20T09:07:24;97498.99;;;3.81;83.05
62057;BME280;48016;50.284;18.860;2023-12-20T09:09:52;97495.95;;;3.84;83.17
62057;BME280;48016;50.284;18.860;2023-12-20T09:12:19;97496.59;;;3.86;83.15
62057;BME280;48016;50.284;18.860;2023-12-20T09:14:47;97492.27;;;3.87;82.96
62057;BME280;48016;50.284;18.860;2023-12-20T09:17:14;97489.48;;;3.89;83.29
62057;BME280;48016;50.284;18.860;2023-12-20T09:19:43;97489.35;;;3.90;83.33
62057;BME280;48016;50.284;18.860;2023-12-20T09:22:12;97487.02;;;3.92;83.49
62057;BME280;48016;50.284;18.860;2023-12-20T09:24:39;97488.93;;;3.93;83.48
62057;BME280;48016;50.284;18.860;2023-12-20T09:27:06;97493.08;;;3.93;83.35
62057;BME280;48016;50.284;18.860;2023-12-20T09:29:32;97493.14;;;3.94;83.76
62057;BME280;48016;50.284;18.860;2023-12-20T09:31:59;97489.98;;;3.94;83.59
62057;BME280;48016;50.284;18.860;2023-12-20T09:34:26;97489.23;;;3.94;83.64
62057;BME280;48016;50.284;18.860;2023-12-20T09:36:53;97488.77;;;3.95;83.62
62057;BME280;48016;50.284;18.860;2023-12-20T09:39:21;97487.27;;;3.94;84.02
62057;BME280;48016;50.284;18.860;2023-12-20T09:42:00;97481.63;;;3.91;84.23
62057;BME280;48016;50.284;18.860;2023-12-20T09:44:28;97479.35;;;3.90;84.08
62057;BME280;48016;50.284;18.860;2023-12-20T09:46:56;97480.73;;;3.90;84.00
62057;BME280;48016;50.284;18.860;2023-12-20T09:49:23;97481.72;;;3.91;84.18
62057;BME280;48016;50.284;18.860;2023-12-20T09:51:51;97476.16;;;3.89;84.26
62057;BME280;48016;50.284;18.860;2023-12-20T09:54:18;97472.45;;;3.85;84.41
62057;BME280;48016;50.284;18.860;2023-12-20T09:56:44;97471.55;;;3.85;84.83
62057;BME280;48016;50.284;18.860;2023-12-20T09:59:11;97471.58;;;3.87;84.62
62057;BME280;48016;50.284;18.860;2023-12-20T10:01:39;97468.56;;;3.86;84.64
62057;BME280;48016;50.284;18.860;2023-12-20T10:04:08;97472.35;;;3.85;84.66
62057;BME280;48016;50.284;18.860;2023-12-20T10:06:42;97472.52;;;3.88;84.62
62057;BME280;48016;50.284;18.860;2023-12-20T10:09:10;97470.34;;;3.89;84.73
62057;BME280;48016;50.284;18.860;2023-12-20T10:11:37;97469.95;;;3.91;84.93
62057;BME280;48016;50.284;18.860;2023-12-20T10:14:05;97473.19;;;3.89;84.94
62057;BME280;48016;50.284;18.860;2023-12-20T10:16:31;97473.94;;;3.92;84.82
62057;BME280;48016;50.284;18.860;2023-12-20T10:18:59;97474.20;;;3.90;84.93
62057;BME280;48016;50.284;18.860;2023-12-20T10:21:26;97470.45;;;3.91;84.79
62057;BME280;48016;50.284;18.860;2023-12-20T10:23:54;97473.24;;;3.94;85.00
62057;BME280;48016;50.284;18.860;2023-12-20T10:26:29;97469.53;;;3.96;84.89
62057;BME280;48016;50.284;18.860;2023-12-20T10:29:00;97472.02;;;3.95;85.09
62057;BME280;48016;50.284;18.860;2023-12-20T10:33:58;97469.67;;;3.97;85.01
62057;BME280;48016;50.284;18.860;2023-12-20T10:36:26;97471.74;;;4.01;85.11
62057;BME280;48016;50.284;18.860;2023-12-20T10:38:55;97470.35;;;4.03;84.98
62057;BME280;48016;50.284;18.860;2023-12-20T10:41:32;97467.48;;;4.02;85.06
62057;BME280;48016;50.284;18.860;2023-12-20T10:44:01;97466.55;;;4.04;85.21
62057;BME280;48016;50.284;18.860;2023-12-20T10:46:29;97468.75;;;4.03;85.20
62057;BME280;48016;50.284;18.860;2023-12-20T10:48:57;97467.65;;;4.04;85.21
62057;BME280;48016;50.284;18.860;2023-12-20T10:51:24;97470.59;;;4.06;85.21
62057;BME280;48016;50.284;18.860;2023-12-20T10:53:54;97470.25;;;4.06;85.12
62057;BME280;48016;50.284;18.860;2023-12-20T10:56:21;97469.05;;;4.05;85.19
62057;BME280;48016;50.284;18.860;2023-12-20T10:58:50;97466.09;;;4.04;85.28
62057;BME280;48016;50.284;18.860;2023-12-20T11:01:18;97463.33;;;4.05;85.37
62057;BME280;48016;50.284;18.860;2023-12-20T11:03:51;97459.98;;;4.06;85.23
62057;BME280;48016;50.284;18.860;2023-12-20T11:06:43;97457.84;;;4.06;85.28
62057;BME280;48016;50.284;18.860;2023-12-20T11:09:22;97456.38;;;4.11;85.28
62057;BME280;48016;50.284;18.860;2023-12-20T11:12:10;97453.83;;;4.16;85.30
62057;BME280;48016;50.284;18.860;2023-12-20T11:14:45;97451.50;;;4.15;85.28
62057;BME280;48016;50.284;18.860;2023-12-20T11:17:13;97454.68;;;4.14;85.49
62057;BME280;48016;50.284;18.860;2023-12-20T11:20:04;97450.81;;;4.13;85.58
62057;BME280;48016;50.284;18.860;2023-12-20T11:22:31;97439.21;;;4.16;85.29
62057;BME280;48016;50.284;18.860;2023-12-20T11:25:05;97439.23;;;4.19;85.46
62057;BME280;48016;50.284;18.860;2023-12-20T11:27:37;97433.86;;;4.23;85.41
62057;BME280;48016;50.284;18.860;2023-12-20T11:30:06;97436.67;;;4.24;85.33
62057;BME280;48016;50.284;18.860;2023-12-20T11:32:36;97432.46;;;4.25;85.57
62057;BME280;48016;50.284;18.860;2023-12-20T11:37:36;97438.59;;;4.23;85.67
62057;BME280;48016;50.284;18.860;2023-12-20T11:40:06;97440.94;;;4.21;85.51
62057;BME280;48016;50.284;18.860;2023-12-20T11:42:38;97440.30;;;4.19;85.65
62057;BME280;48016;50.284;18.860;2023-12-20T11:45:05;97438.10;;;4.21;85.63
62057;BME280;48016;50.284;18.860;2023-12-20T11:47:32;97437.66;;;4.22;85.67
62057;BME280;48016;50.284;18.860;2023-12-20T11:49:58;97437.93;;;4.23;85.64
62057;BME280;48016;50.284;18.860;2023-12-20T11:52:26;97438.05;;;4.24;85.78
62057;BME280;48016;50.284;18.860;2023-12-20T11:54:53;97437.71;;;4.25;85.70
62057;BME280;48016;50.284;18.860;2023-12-20T11:57:20;97437.67;;;4.28;85.71
62057;BME280;48016;50.284;18.860;2023-12-20T11:59:46;97435.80;;;4.31;85.82
62057;BME280;48016;50.284;18.860;2023-12-20T12:02:13;97430.53;;;4.33;85.70
62057;BME280;48016;50.284;18.860;2023-12-20T12:04:42;97422.52;;;4.36;85.73
62057;BME280;48016;50.284;18.860;2023-12-20T12:07:09;97421.04;;;4.42;85.81
62057;BME280;48016;50.284;18.860;2023-12-20T12:09:35;97421.17;;;4.46;85.74
62057;BME280;48016;50.284;18.860;2023-12-20T12:12:02;97422.80;;;4.52;85.77
62057;BME280;48016;50.284;18.860;2023-12-20T12:14:29;97428.05;;;4.56;85.80
62057;BME280;48016;50.284;18.860;2023-12-20T12:16:56;97425.21;;;4.58;85.85
62057;BME280;48016;50.284;18.860;2023-12-20T12:19:23;97421.41;;;4.59;85.62
62057;BME280;48016;50.284;18.860;2023-12-20T12:21:51;97415.30;;;4.58;85.76
62057;BME280;48016;50.284;18.860;2023-12-20T12:24:20;97414.84;;;4.60;85.79
62057;BME280;48016;50.284;18.860;2023-12-20T12:26:51;97416.23;;;4.64;85.81
62057;BME280;48016;50.284;18.860;2023-12-20T12:29:18;97417.42;;;4.68;85.65
62057;BME280;48016;50.284;18.860;2023-12-20T12:31:44;97410.05;;;4.66;85.47
62057;BME280;48016;50.284;18.860;2023-12-20T12:34:11;97414.52;;;4.65;85.52
62057;BME280;48016;50.284;18.860;2023-12-20T12:36:38;97417.83;;;4.67;85.32
62057;BME280;48016;50.284;18.860;2023-12-20T12:39:05;97416.71;;;4.70;85.36
62057;BME280;48016;50.284;18.860;2023-12-20T12:41:32;97419.00;;;4.74;85.34
62057;BME280;48016;50.284;18.860;2023-12-20T12:43:59;97420.02;;;4.78;85.04
62057;BME280;48016;50.284;18.860;2023-12-20T12:46:25;97424.69;;;4.81;85.18
62057;BME280;48016;50.284;18.860;2023-12-20T12:48:52;97426.62;;;4.84;85.08
62057;BME280;48016;50.284;18.860;2023-12-20T12:51:18;97430.42;;;4.87;85.06
62057;BME280;48016;50.284;18.860;2023-12-20T12:53:45;97425.97;;;4.89;85.05
62057;BME280;48016;50.284;18.860;2023-12-20T12:56:13;97418.95;;;4.89;85.05
62057;BME280;48016;50.284;18.860;2023-12-20T12:58:40;97414.34;;;4.89;84.89
62057;BME280;48016;50.284;18.860;2023-12-20T13:01:07;97412.80;;;4.87;84.87
62057;BME280;48016;50.284;18.860;2023-12-20T13:03:35;97415.01;;;4.85;84.97
62057;BME280;48016;50.284;18.860;2023-12-20T13:06:02;97405.21;;;4.82;84.78